createdAt,value
2019-02-02T00:01:34.373Z,0.55
2019-02-02T00:04:03.008Z,0.61
2019-02-02T00:06:31.486Z,0.63
2019-02-02T00:09:00.251Z,0.66
2019-02-02T00:11:28.686Z,0.65
2019-02-02T00:13:57.382Z,0.64
2019-02-02T00:16:25.935Z,0.67
2019-02-02T00:18:54.890Z,0.63
2019-02-02T00:21:23.444Z,0.62
2019-02-02T00:23:51.927Z,0.56
2019-02-02T00:26:20.443Z,0.53
2019-02-02T00:28:49.090Z,0.48
2019-02-02T00:31:18.049Z,0.49
2019-02-02T00:33:47.006Z,0.46
2019-02-02T00:36:15.438Z,0.47
2019-02-02T00:38:44.495Z,0.42
2019-02-02T00:41:13.095Z,0.35
2019-02-02T00:43:41.679Z,0.29
2019-02-02T00:46:10.129Z,0.30
2019-02-02T00:48:39.182Z,0.29
2019-02-02T00:51:07.635Z,0.24
2019-02-02T00:53:36.348Z,0.25
2019-02-02T00:56:08.043Z,0.24
2019-02-02T00:58:36.644Z,0.27
2019-02-02T01:01:06.061Z,0.26
2019-02-02T01:03:35.226Z,0.24
2019-02-02T01:06:04.961Z,0.26
2019-02-02T01:08:33.556Z,0.22
2019-02-02T01:11:02.101Z,0.14
2019-02-02T01:13:30.529Z,0.16
2019-02-02T01:15:59.539Z,0.18
2019-02-02T01:18:28.048Z,0.14
2019-02-02T01:20:57.114Z,0.10
2019-02-02T01:23:25.747Z,0.13
2019-02-02T01:25:54.309Z,0.14
2019-02-02T01:28:22.826Z,0.14
2019-02-02T01:30:51.289Z,0.13
2019-02-02T01:33:19.898Z,0.13
2019-02-02T01:35:48.542Z,0.11
2019-02-02T01:38:16.981Z,0.12
2019-02-02T01:40:45.587Z,0.11
2019-02-02T01:43:14.004Z,0.11
2019-02-02T01:45:42.437Z,0.15
2019-02-02T01:48:11.082Z,0.15
2019-02-02T01:50:39.596Z,0.15
2019-02-02T01:53:08.100Z,0.17
2019-02-02T01:55:36.554Z,0.14
2019-02-02T01:58:16.007Z,0.09
2019-02-02T02:00:35.399Z,0.05
2019-02-02T02:03:04.113Z,0.11
2019-02-02T02:05:33.694Z,0.12
2019-02-02T02:08:02.688Z,0.10
2019-02-02T02:10:31.270Z,0.10
2019-02-02T02:12:59.719Z,0.12
2019-02-02T02:15:28.549Z,0.13
2019-02-02T02:17:57.351Z,0.08
2019-02-02T02:20:26.535Z,-0.02
2019-02-02T02:22:55.318Z,0.02
2019-02-02T02:25:24.002Z,0.06
2019-02-02T02:27:52.450Z,0.07
2019-02-02T02:30:22.418Z,0.11
2019-02-02T02:32:51.386Z,0.10
2019-02-02T02:35:20.408Z,0.12
2019-02-02T02:37:49.793Z,0.05
2019-02-02T02:40:22.177Z,0.02
2019-02-02T02:42:50.731Z,0.05
2019-02-02T02:45:19.840Z,0.02
2019-02-02T02:47:48.728Z,0.05
2019-02-02T02:50:18.639Z,0.00
2019-02-02T02:52:47.195Z,0.04
2019-02-02T02:55:16.423Z,0.03
2019-02-02T02:57:44.944Z,0.02
2019-02-02T03:00:32.847Z,0.05
2019-02-02T03:03:01.623Z,0.04
2019-02-02T03:05:30.063Z,-0.02
2019-02-02T03:07:58.799Z,-0.04
2019-02-02T03:10:27.451Z,-0.07
2019-02-02T03:12:55.932Z,-0.07
2019-02-02T03:15:24.691Z,-0.04
2019-02-02T03:17:53.235Z,-0.04
2019-02-02T03:20:21.829Z,-0.02
2019-02-02T03:22:50.669Z,0.00
2019-02-02T03:25:20.845Z,0.03
2019-02-02T03:27:49.355Z,0.07
2019-02-02T03:30:19.024Z,0.09
2019-02-02T03:32:47.510Z,0.08
2019-02-02T03:35:17.805Z,0.09
2019-02-02T03:37:46.921Z,0.09
2019-02-02T03:40:17.307Z,0.08
2019-02-02T03:42:45.883Z,0.06
2019-02-02T03:45:16.299Z,0.10
2019-02-02T03:47:44.863Z,0.13
2019-02-02T03:50:13.434Z,0.16
2019-02-02T03:52:42.218Z,0.21
2019-02-02T03:55:11.923Z,0.24
2019-02-02T03:57:40.432Z,0.26
2019-02-02T04:00:11.876Z,0.24
2019-02-02T04:02:40.422Z,0.26
2019-02-02T04:05:11.890Z,0.27
2019-02-02T04:07:40.787Z,0.27
2019-02-02T04:10:09.779Z,0.31
2019-02-02T04:12:38.234Z,0.34
2019-02-02T04:15:07.138Z,0.37
2019-02-02T04:17:35.664Z,0.37
2019-02-02T04:20:05.620Z,0.39
2019-02-02T04:22:35.766Z,0.37
2019-02-02T04:25:05.749Z,0.38
2019-02-02T04:27:34.504Z,0.36
2019-02-02T04:30:03.475Z,0.34
2019-02-02T04:32:32.330Z,0.38
2019-02-02T04:35:03.573Z,0.39
2019-02-02T04:37:32.401Z,0.38
2019-02-02T04:40:01.074Z,0.37
2019-02-02T04:42:29.557Z,0.35
2019-02-02T04:44:58.417Z,0.32
2019-02-02T04:47:27.062Z,0.37
2019-02-02T04:49:55.615Z,0.36
2019-02-02T04:52:24.678Z,0.32
2019-02-02T04:54:53.579Z,0.30
2019-02-02T04:57:21.999Z,0.29
2019-02-02T04:59:50.862Z,0.25
2019-02-02T05:02:19.777Z,0.28
2019-02-02T05:04:48.622Z,0.25
2019-02-02T05:07:17.323Z,0.23
2019-02-02T05:09:46.125Z,0.22
2019-02-02T05:12:14.957Z,0.20
2019-02-02T05:14:44.101Z,0.22
2019-02-02T05:17:12.557Z,0.18
2019-02-02T05:19:41.120Z,0.14
2019-02-02T05:22:09.617Z,0.15
2019-02-02T05:24:38.176Z,0.17
2019-02-02T05:27:06.681Z,0.19
2019-02-02T05:29:41.504Z,0.17
2019-02-02T05:32:05.572Z,0.12
2019-02-02T05:34:34.391Z,0.11
2019-02-02T05:37:02.908Z,0.10
2019-02-02T05:39:31.447Z,0.10
2019-02-02T05:42:00.291Z,0.14
2019-02-02T05:44:28.766Z,0.19
2019-02-02T05:46:57.215Z,0.21
2019-02-02T05:49:25.763Z,0.25
2019-02-02T05:51:54.704Z,0.26
2019-02-02T05:54:23.261Z,0.24
2019-02-02T05:56:51.754Z,0.26
2019-02-02T05:59:20.522Z,0.25
2019-02-02T06:01:49.318Z,0.23
2019-02-02T06:04:17.895Z,0.25
2019-02-02T06:06:46.686Z,0.30
2019-02-02T06:09:15.214Z,0.22
2019-02-02T06:11:44.017Z,0.21
2019-02-02T06:14:12.989Z,0.26
2019-02-02T06:16:41.509Z,0.23
2019-02-02T06:19:10.309Z,0.24
2019-02-02T06:21:38.805Z,0.25
2019-02-02T06:24:07.587Z,0.28
2019-02-02T06:26:36.106Z,0.24
2019-02-02T06:29:04.869Z,0.19
2019-02-02T06:31:33.467Z,0.18
2019-02-02T06:34:02.005Z,0.21
2019-02-02T06:36:30.624Z,0.21
2019-02-02T06:38:59.052Z,0.25
2019-02-02T06:41:27.899Z,0.25
2019-02-02T06:43:56.348Z,0.28
2019-02-02T06:46:25.168Z,0.25
2019-02-02T06:48:53.609Z,0.23
2019-02-02T06:51:22.662Z,0.26
2019-02-02T06:53:51.204Z,0.27
2019-02-02T06:56:19.670Z,0.28
2019-02-02T06:58:48.191Z,0.25
2019-02-02T07:01:17.175Z,0.17
2019-02-02T07:03:45.605Z,0.18
2019-02-02T07:06:14.622Z,0.17
2019-02-02T07:08:43.328Z,0.14
2019-02-02T07:11:12.297Z,0.14
2019-02-02T07:13:40.890Z,0.12
2019-02-02T07:16:10.021Z,0.13
2019-02-02T07:18:38.541Z,0.16
2019-02-02T07:21:06.981Z,0.17
2019-02-02T07:23:35.642Z,0.15
2019-02-02T07:26:04.415Z,0.12
2019-02-02T07:28:32.906Z,0.08
2019-02-02T07:31:01.349Z,0.06
2019-02-02T07:33:30.180Z,0.09
2019-02-02T07:35:59.195Z,0.12
2019-02-02T07:38:27.699Z,0.14
2019-02-02T07:40:56.457Z,0.21
2019-02-02T07:43:25.381Z,0.19
2019-02-02T07:45:54.186Z,0.22
2019-02-02T07:48:22.622Z,0.29
2019-02-02T07:50:51.507Z,0.29
2019-02-02T07:53:20.029Z,0.35
2019-02-02T07:55:48.765Z,0.30
2019-02-02T07:58:17.323Z,0.32
2019-02-02T08:00:45.763Z,0.37
2019-02-02T08:03:14.372Z,0.36
2019-02-02T08:05:43.193Z,0.37
2019-02-02T08:08:12.170Z,0.36
2019-02-02T08:10:40.794Z,0.37
2019-02-02T08:13:09.554Z,0.31
2019-02-02T08:15:38.089Z,0.30
2019-02-02T08:18:06.716Z,0.36
2019-02-02T08:20:35.719Z,0.36
2019-02-02T08:23:04.177Z,0.33
2019-02-02T08:25:32.655Z,0.31
2019-02-02T08:28:01.216Z,0.28
2019-02-02T08:30:31.607Z,0.32
2019-02-02T08:33:00.369Z,0.31
2019-02-02T08:35:29.554Z,0.30
2019-02-02T08:37:58.484Z,0.32
2019-02-02T08:40:26.913Z,0.36
2019-02-02T08:42:55.620Z,0.39
2019-02-02T08:45:24.141Z,0.46
2019-02-02T08:47:52.835Z,0.53
2019-02-02T08:50:27.329Z,0.59
2019-02-02T08:52:55.943Z,0.63
2019-02-02T08:55:24.505Z,0.70
2019-02-02T08:57:53.612Z,0.69
2019-02-02T09:00:22.139Z,0.57
2019-02-02T09:02:50.727Z,0.57
2019-02-02T09:05:20.280Z,0.61
2019-02-02T09:07:48.691Z,0.59
2019-02-02T09:10:22.381Z,0.61
2019-02-02T09:12:51.014Z,0.63
2019-02-02T09:15:19.568Z,0.52
2019-02-02T09:17:48.468Z,0.52
2019-02-02T09:20:16.942Z,0.59
2019-02-02T09:22:45.947Z,0.69
2019-02-02T09:25:15.880Z,0.72
2019-02-02T09:27:44.663Z,0.73
2019-02-02T09:30:16.077Z,0.73
2019-02-02T09:32:44.497Z,0.76
2019-02-02T09:35:12.940Z,0.76
2019-02-02T09:37:41.396Z,0.77
2019-02-02T09:40:11.316Z,0.77
2019-02-02T09:42:39.752Z,0.77
2019-02-02T09:45:09.861Z,0.83
2019-02-02T09:47:38.640Z,0.79
2019-02-02T09:50:09.713Z,0.82
2019-02-02T09:52:38.167Z,0.83
2019-02-02T09:55:08.625Z,0.90
2019-02-02T09:57:37.175Z,0.91
2019-02-02T10:00:08.448Z,0.97
2019-02-02T10:02:37.009Z,0.98
2019-02-02T10:05:05.735Z,1.07
2019-02-02T10:07:34.336Z,1.14
2019-02-02T10:10:05.344Z,1.20
2019-02-02T10:12:34.237Z,1.23
2019-02-02T10:15:06.191Z,1.23
2019-02-02T10:17:34.748Z,1.26
2019-02-02T10:20:03.536Z,1.34
2019-02-02T10:22:31.974Z,1.40
2019-02-02T10:25:00.745Z,1.33
2019-02-02T10:27:29.708Z,1.32
2019-02-02T10:29:58.226Z,1.34
2019-02-02T10:32:26.940Z,1.32
2019-02-02T10:34:55.440Z,1.26
2019-02-02T10:37:24.331Z,1.27
2019-02-02T10:39:55.164Z,1.35
2019-02-02T10:42:23.673Z,1.37
2019-02-02T10:44:52.295Z,1.35
2019-02-02T10:47:21.894Z,1.36
2019-02-02T10:49:51.597Z,1.36
2019-02-02T10:52:20.148Z,1.33
2019-02-02T10:54:48.667Z,1.34
2019-02-02T10:57:17.192Z,1.21
2019-02-02T10:59:45.637Z,1.20
2019-02-02T11:02:17.822Z,1.26
2019-02-02T11:04:47.289Z,1.31
2019-02-02T11:07:15.963Z,1.32
2019-02-02T11:09:44.860Z,1.40
2019-02-02T11:12:13.336Z,1.33
2019-02-02T11:14:42.257Z,1.41
2019-02-02T11:17:11.367Z,1.48
2019-02-02T11:19:40.347Z,1.52
2019-02-02T11:22:08.904Z,1.46
2019-02-02T11:24:37.596Z,1.59
2019-02-02T11:27:06.419Z,1.62
2019-02-02T11:29:35.350Z,1.71
2019-02-02T11:32:03.975Z,1.81
2019-02-02T11:34:32.666Z,1.92
2019-02-02T11:37:01.346Z,1.97
2019-02-02T11:39:29.896Z,1.98
2019-02-02T11:41:58.643Z,2.04
2019-02-02T11:44:27.126Z,2.11
2019-02-02T11:46:55.931Z,2.14
2019-02-02T11:49:24.407Z,2.15
2019-02-02T11:51:53.098Z,2.11
2019-02-02T11:54:21.538Z,2.07
2019-02-02T11:56:50.368Z,2.06
2019-02-02T11:59:18.807Z,2.02
2019-02-02T12:01:47.251Z,2.01
2019-02-02T12:04:16.026Z,2.07
2019-02-02T12:06:44.496Z,2.11
2019-02-02T12:09:12.926Z,2.04
2019-02-02T12:11:41.384Z,2.00
2019-02-02T12:14:09.987Z,2.00
2019-02-02T12:16:38.441Z,2.11
2019-02-02T12:19:06.890Z,2.23
2019-02-02T12:21:35.700Z,2.31
2019-02-02T12:24:14.197Z,2.22
2019-02-02T12:26:34.849Z,2.20
2019-02-02T12:29:03.679Z,2.28
2019-02-02T12:31:32.160Z,2.35
2019-02-02T12:34:00.615Z,2.39
2019-02-02T12:36:29.062Z,2.49
2019-02-02T12:38:58.324Z,2.51
2019-02-02T12:41:26.769Z,2.51
2019-02-02T12:43:55.220Z,2.71
2019-02-02T12:46:23.665Z,2.64
2019-02-02T12:48:52.107Z,2.63
2019-02-02T12:51:20.556Z,2.43
2019-02-02T12:53:49.025Z,2.53
2019-02-02T12:56:17.470Z,2.55
2019-02-02T12:58:46.026Z,2.33
2019-02-02T13:01:14.758Z,2.30
2019-02-02T13:03:43.201Z,2.18
2019-02-02T13:06:11.677Z,2.26
2019-02-02T13:08:40.137Z,2.23
2019-02-02T13:11:08.819Z,2.08
2019-02-02T13:13:37.278Z,2.02
2019-02-02T13:16:06.043Z,2.04
2019-02-02T13:18:34.482Z,2.10
2019-02-02T13:21:02.910Z,2.06
2019-02-02T13:23:31.362Z,2.04
2019-02-02T13:26:05.648Z,2.12
2019-02-02T13:28:30.908Z,2.08
2019-02-02T13:30:59.692Z,2.20
2019-02-02T13:33:28.148Z,2.15
2019-02-02T13:35:56.574Z,2.25
2019-02-02T13:38:25.012Z,2.26
2019-02-02T13:40:53.561Z,2.29
2019-02-02T13:43:22.062Z,2.28
2019-02-02T13:45:50.890Z,2.19
2019-02-02T13:48:19.639Z,2.13
2019-02-02T13:50:48.079Z,2.14
2019-02-02T13:53:16.570Z,2.04
2019-02-02T13:55:45.029Z,2.00
2019-02-02T13:58:13.695Z,1.93
2019-02-02T14:00:42.212Z,1.59
2019-02-02T14:03:10.689Z,1.93
2019-02-02T14:05:39.637Z,1.94
2019-02-02T14:08:08.341Z,1.88
2019-02-02T14:10:36.779Z,1.80
2019-02-02T14:13:05.546Z,1.84
2019-02-02T14:15:34.231Z,1.77
2019-02-02T14:18:02.982Z,1.77
2019-02-02T14:20:31.675Z,1.79
2019-02-02T14:23:00.625Z,1.74
2019-02-02T14:25:29.071Z,1.75
2019-02-02T14:27:57.495Z,1.71
2019-02-02T14:30:26.571Z,1.69
2019-02-02T14:32:55.466Z,1.65
2019-02-02T14:35:25.783Z,1.64
2019-02-02T14:37:54.291Z,1.22
2019-02-02T14:40:22.998Z,1.57
2019-02-02T14:42:51.878Z,1.50
2019-02-02T14:45:21.521Z,1.48
2019-02-02T14:47:50.687Z,1.48
2019-02-02T14:50:20.623Z,1.36
2019-02-02T14:52:49.629Z,1.34
2019-02-02T14:55:21.441Z,1.38
2019-02-02T14:57:49.864Z,1.35
2019-02-02T15:00:23.396Z,1.30
2019-02-02T15:02:51.879Z,1.28
2019-02-02T15:05:21.578Z,1.31
2019-02-02T15:07:50.022Z,1.28
2019-02-02T15:10:18.733Z,1.31
2019-02-02T15:12:47.237Z,1.36
2019-02-02T15:15:15.794Z,1.40
2019-02-02T15:17:44.778Z,1.37
2019-02-02T15:20:40.264Z,1.32
2019-02-02T15:23:08.690Z,1.28
2019-02-02T15:25:37.456Z,1.28
2019-02-02T15:28:06.023Z,1.22
2019-02-02T15:30:35.139Z,1.18
2019-02-02T15:33:03.586Z,1.13
2019-02-02T15:35:32.372Z,1.13
2019-02-02T15:38:00.816Z,1.12
2019-02-02T15:40:31.719Z,1.23
2019-02-02T15:43:01.677Z,1.14
2019-02-02T15:45:30.397Z,1.11
2019-02-02T15:47:59.388Z,1.09
2019-02-02T15:50:27.850Z,1.03
2019-02-02T15:52:56.277Z,0.98
2019-02-02T15:55:24.771Z,0.91
2019-02-02T15:57:53.199Z,0.84
2019-02-02T16:00:32.906Z,0.88
2019-02-02T16:03:01.639Z,0.83
2019-02-02T16:05:30.105Z,0.79
2019-02-02T16:07:59.974Z,0.81
2019-02-02T16:10:29.458Z,0.82
2019-02-02T16:12:58.322Z,0.78
2019-02-02T16:15:27.430Z,0.78
2019-02-02T16:17:55.867Z,0.77
2019-02-02T16:20:26.867Z,0.73
2019-02-02T16:22:58.382Z,0.77
2019-02-02T16:25:26.899Z,0.78
2019-02-02T16:27:55.385Z,0.75
2019-02-02T16:30:25.197Z,0.63
2019-02-02T16:32:53.989Z,0.54
2019-02-02T16:35:22.432Z,0.54
2019-02-02T16:37:51.127Z,0.50
2019-02-02T16:40:21.278Z,0.53
2019-02-02T16:42:50.033Z,0.51
2019-02-02T16:45:23.457Z,0.49
2019-02-02T16:47:52.715Z,0.51
2019-02-02T16:50:21.241Z,0.52
2019-02-02T16:52:49.695Z,0.49
2019-02-02T16:55:18.476Z,0.49
2019-02-02T16:57:46.920Z,0.50
2019-02-02T17:00:18.019Z,0.47
2019-02-02T17:02:46.522Z,0.48
2019-02-02T17:05:15.093Z,0.51
2019-02-02T17:07:46.265Z,0.48
2019-02-02T17:10:16.368Z,0.47
2019-02-02T17:12:44.662Z,0.47
2019-02-02T17:15:13.385Z,0.47
2019-02-02T17:17:41.965Z,0.53
2019-02-02T17:20:13.521Z,0.47
2019-02-02T17:22:42.002Z,0.43
2019-02-02T17:25:12.652Z,0.40
2019-02-02T17:27:41.095Z,0.38
2019-02-02T17:30:12.076Z,0.39
2019-02-02T17:32:40.517Z,0.42
2019-02-02T17:35:10.151Z,0.38
2019-02-02T17:37:38.602Z,0.36
2019-02-02T17:40:10.502Z,0.38
2019-02-02T17:42:39.270Z,0.38
2019-02-02T17:45:10.238Z,0.33
2019-02-02T17:47:38.683Z,0.35
2019-02-02T17:50:09.244Z,0.35
2019-02-02T17:52:37.703Z,0.37
2019-02-02T17:55:06.855Z,0.38
2019-02-02T17:57:35.327Z,0.29
2019-02-02T18:00:04.568Z,0.28
2019-02-02T18:02:33.100Z,0.26
2019-02-02T18:05:01.601Z,0.24
2019-02-02T18:07:30.002Z,0.24
2019-02-02T18:09:58.492Z,0.25
2019-02-02T18:12:27.224Z,0.25
2019-02-02T18:14:55.977Z,0.30
2019-02-02T18:17:24.419Z,0.26
2019-02-02T18:19:52.863Z,0.25
2019-02-02T18:22:21.323Z,0.22
2019-02-02T18:24:49.767Z,0.23
2019-02-02T18:27:18.217Z,0.22
2019-02-02T18:29:46.954Z,0.23
2019-02-02T18:32:15.704Z,0.30
2019-02-02T18:34:51.030Z,0.21
2019-02-02T18:37:14.314Z,0.22
2019-02-02T18:39:42.761Z,0.18
2019-02-02T18:42:11.200Z,0.19
2019-02-02T18:44:39.652Z,0.14
2019-02-02T18:47:08.370Z,0.16
2019-02-02T18:49:36.831Z,0.15
2019-02-02T18:52:06.180Z,0.18
2019-02-02T18:54:34.717Z,0.15
2019-02-02T18:57:03.156Z,0.17
2019-02-02T18:59:32.221Z,0.15
2019-02-02T19:02:00.721Z,0.15
2019-02-02T19:04:29.175Z,0.16
2019-02-02T19:06:57.655Z,0.19
2019-02-02T19:09:26.311Z,0.18
2019-02-02T19:11:54.848Z,0.18
2019-02-02T19:14:23.303Z,0.17
2019-02-02T19:17:00.763Z,0.18
2019-02-02T19:19:22.276Z,0.18
2019-02-02T19:21:51.095Z,0.15
2019-02-02T19:24:19.535Z,0.18
2019-02-02T19:26:47.970Z,0.23
2019-02-02T19:29:17.783Z,0.24
2019-02-02T19:31:46.212Z,0.28
2019-02-02T19:34:14.934Z,0.25
2019-02-02T19:36:43.367Z,0.26
2019-02-02T19:39:11.872Z,0.25
2019-02-02T19:41:40.307Z,0.23
2019-02-02T19:44:08.798Z,0.27
2019-02-02T19:46:37.547Z,0.27
2019-02-02T19:49:06.326Z,0.29
2019-02-02T19:51:35.048Z,0.29
2019-02-02T19:54:03.813Z,0.28
2019-02-02T19:56:32.929Z,0.27
2019-02-02T19:59:01.382Z,0.30
2019-02-02T20:01:29.846Z,0.29
2019-02-02T20:03:58.564Z,0.29
2019-02-02T20:06:27.020Z,0.30
2019-02-02T20:08:55.710Z,0.31
2019-02-02T20:11:24.405Z,0.29
2019-02-02T20:13:53.145Z,0.30
2019-02-02T20:16:21.866Z,0.29
2019-02-02T20:18:50.302Z,0.32
2019-02-02T20:21:19.037Z,0.28
2019-02-02T20:23:47.466Z,0.27
2019-02-02T20:26:15.915Z,0.25
2019-02-02T20:28:46.732Z,0.29
2019-02-02T20:31:14.766Z,0.27
2019-02-02T20:33:43.211Z,0.35
2019-02-02T20:36:11.657Z,0.30
2019-02-02T20:38:40.260Z,0.30
2019-02-02T20:41:08.710Z,0.30
2019-02-02T20:43:37.406Z,0.33
2019-02-02T20:46:05.902Z,0.35
2019-02-02T20:48:34.333Z,0.30
2019-02-02T20:51:02.960Z,0.30
2019-02-02T20:53:31.747Z,0.35
2019-02-02T20:56:00.186Z,0.33
2019-02-02T20:58:28.619Z,0.34
2019-02-02T21:00:57.063Z,0.28
2019-02-02T21:03:25.728Z,0.36
2019-02-02T21:05:54.559Z,0.31
2019-02-02T21:08:22.983Z,0.34
2019-02-02T21:10:51.446Z,0.31
2019-02-02T21:13:19.945Z,0.28
2019-02-02T21:15:48.442Z,0.24
2019-02-02T21:18:18.852Z,0.24
2019-02-02T21:20:47.328Z,0.27
2019-02-02T21:23:15.785Z,0.30
2019-02-02T21:25:44.246Z,0.28
2019-02-02T21:28:12.699Z,0.30
2019-02-02T21:30:41.512Z,0.29
2019-02-02T21:33:10.266Z,0.27
2019-02-02T21:35:38.779Z,0.29
2019-02-02T21:38:07.568Z,0.25
2019-02-02T21:40:36.105Z,0.30
2019-02-02T21:43:05.194Z,0.28
2019-02-02T21:45:33.897Z,0.23
2019-02-02T21:48:02.344Z,0.24
2019-02-02T21:50:31.015Z,0.24
2019-02-02T21:52:59.722Z,0.24
2019-02-02T21:55:28.747Z,0.23
2019-02-02T21:57:57.459Z,0.24
2019-02-02T22:00:28.735Z,0.24
2019-02-02T22:02:57.188Z,0.29
2019-02-02T22:05:25.655Z,0.32
2019-02-02T22:07:54.107Z,0.29
2019-02-02T22:10:22.578Z,0.29
2019-02-02T22:12:52.800Z,0.29
2019-02-02T22:15:22.379Z,0.30
2019-02-02T22:17:50.827Z,0.28
2019-02-02T22:20:19.280Z,0.35
2019-02-02T22:22:47.773Z,0.28
2019-02-02T22:25:18.157Z,0.30
2019-02-02T22:27:46.913Z,0.27
2019-02-02T22:30:18.115Z,0.26
2019-02-02T22:32:46.560Z,0.29
2019-02-02T22:35:14.995Z,0.30
2019-02-02T22:37:43.453Z,0.29
2019-02-02T22:40:15.804Z,0.26
2019-02-02T22:42:44.263Z,0.30
2019-02-02T22:45:14.809Z,0.28
2019-02-02T22:47:43.583Z,0.26
2019-02-02T22:50:14.237Z,0.23
2019-02-02T22:52:43.294Z,0.26
2019-02-02T22:55:12.669Z,0.24
2019-02-02T22:57:41.480Z,0.24
2019-02-02T23:01:00.457Z,0.25
2019-02-02T23:03:40.950Z,0.23
2019-02-02T23:07:06.665Z,0.18
2019-02-02T23:10:14.118Z,0.14
2019-02-02T23:13:09.058Z,0.21
2019-02-02T23:16:20.943Z,0.22
2019-02-02T23:18:49.951Z,0.23
2019-02-02T23:21:18.401Z,0.19
2019-02-02T23:23:47.190Z,0.18
2019-02-02T23:26:15.633Z,0.19
2019-02-02T23:28:44.096Z,0.19
2019-02-02T23:31:12.538Z,0.25
2019-02-02T23:33:41.627Z,0.18
2019-02-02T23:36:10.408Z,0.15
2019-02-02T23:38:38.865Z,0.14
2019-02-02T23:41:07.320Z,0.23
2019-02-02T23:43:36.063Z,0.16
2019-02-02T23:46:04.845Z,0.11
2019-02-02T23:48:33.527Z,0.11
2019-02-02T23:51:02.319Z,0.08
2019-02-02T23:53:31.316Z,0.06
2019-02-02T23:56:00.303Z,0.07
2019-02-02T23:58:28.735Z,0.02
